Roanoke, VA

10:58 AM EDT on August 25, 2016 (GMT -0400)
Brookledge | | Change Station

Elev 1070 ft 37.27 °N, 79.83 °W | Updated 7 days ago

Mostly Cloudy
Mostly Cloudy
86 °F
Feels Like 92 °F
N
6
Wind Variable Wind from WNW
Gusts mph

Today
High -- | Low -- °F
--% Chance of Precip.
Yesterday
High -- | Low -- °F
Precip. -- in
Pressure 30.15 in
Visibility 10.0 miles
Clouds Few 4500 ft
Scattered Clouds 28000 ft
Heat Index 92 °F
Dew Point 72 °F
Humidity 62%
Rainfall in
Snow Depth Not available.
6:44 AM 7:57 PM
Last Quarter, 45% visible
METAR KROA 251454Z 28006KT 10SM FEW045 SCT280 28/21 A3019 RMK AO2 SLP210 T02830211 50000
Pressure 30.15 in
Visibility 10.0 miles
Clouds Few 4500 ft
Scattered Clouds 28000 ft
Heat Index 92 °F
Dew Point 72 °F
Humidity 62%
Rainfall in
Snow Depth Not available.
6:44 AM 7:57 PM
Last Quarter, 45% visible
METAR KROA 251454Z 28006KT 10SM FEW045 SCT280 28/21 A3019 RMK AO2 SLP210 T02830211 50000

10-Day Weather Forecast

Almanac

Astronomy

Aug. 25, 2016 Rise Set
Actual Time
Civil Twilight
Nautical Twilight
Astronomical Twilight
Moon
Length of Visible Light
Length of Day
Tomorrow will be .
, % of the Moon is Illuminated

Today's Extremes

State Highs State Lows

Community

WunderPhotos

Upload Photos

1,934,850 photos uploaded!

WunderBlog® & News

Nearby

Air Quality

  Air Quality AQ Index Pollutant
Not available.

Snow Depth

Station Depth Elevation

Earthquake Activity

City Distance Mag. Time & Date
Minimum magnitude displayed is 2.5.

Coastal Water Temperatures

Place Temperature

Stations

Nearby Weather Stations

Station Location Temp. Windchill Dew Point Humidity Wind Precip. Elev Updated Type
                   

Watches & Warnings

There are currently no watches in effect.